sensor_id;sensor_type;location;lat;lon;timestamp;pressure;altitude;pressure_sealevel;temperature;humidity
39769;BME280;38939;47.824;14.642;2023-03-26T00:00:31;96429.13;;;7.35;82.54
39769;BME280;38939;47.824;14.642;2023-03-26T00:01:35;96426.59;;;7.41;82.62
39769;BME280;38939;47.824;14.642;2023-03-26T00:02:37;96432.94;;;7.39;82.86
39769;BME280;38939;47.824;14.642;2023-03-26T00:03:41;96427.75;;;7.39;82.91
39769;BME280;38939;47.824;14.642;2023-03-26T00:04:43;96425.75;;;7.34;82.95
39769;BME280;38939;47.824;14.642;2023-03-26T00:05:47;96434.91;;;7.30;83.23
39769;BME280;38939;47.824;14.642;2023-03-26T00:06:49;96433.06;;;7.17;83.86
39769;BME280;38939;47.824;14.642;2023-03-26T00:07:51;96432.66;;;7.20;83.78
39769;BME280;38939;47.824;14.642;2023-03-26T00:08:55;96427.91;;;7.24;83.92
39769;BME280;38939;47.824;14.642;2023-03-26T00:09:58;96432.91;;;7.26;83.76
39769;BME280;38939;47.824;14.642;2023-03-26T00:11:01;96435.50;;;7.26;83.60
39769;BME280;38939;47.824;14.642;2023-03-26T00:12:04;96424.47;;;7.17;83.97
39769;BME280;38939;47.824;14.642;2023-03-26T00:13:07;96429.25;;;7.13;83.46
39769;BME280;38939;47.824;14.642;2023-03-26T00:14:09;96427.06;;;7.17;83.40
39769;BME280;38939;47.824;14.642;2023-03-26T00:15:14;96430.06;;;7.14;84.16
39769;BME280;38939;47.824;14.642;2023-03-26T00:16:18;96430.06;;;7.14;83.93
39769;BME280;38939;47.824;14.642;2023-03-26T00:17:20;96436.28;;;7.19;84.04
39769;BME280;38939;47.824;14.642;2023-03-26T00:18:23;96434.28;;;7.21;83.49
39769;BME280;38939;47.824;14.642;2023-03-26T00:19:31;96430.06;;;7.20;84.18
39769;BME280;38939;47.824;14.642;2023-03-26T00:20:34;96423.91;;;7.21;83.28
39769;BME280;38939;47.824;14.642;2023-03-26T00:21:36;96411.72;;;7.22;82.94
39769;BME280;38939;47.824;14.642;2023-03-26T00:22:39;96413.47;;;7.15;84.28
39769;BME280;38939;47.824;14.642;2023-03-26T00:23:42;96425.44;;;7.09;83.96
39769;BME280;38939;47.824;14.642;2023-03-26T00:24:44;96427.00;;;7.04;83.67
39769;BME280;38939;47.824;14.642;2023-03-26T00:25:50;96438.00;;;7.06;84.73
39769;BME280;38939;47.824;14.642;2023-03-26T00:26:52;96432.22;;;7.10;84.68
39769;BME280;38939;47.824;14.642;2023-03-26T00:27:55;96430.06;;;7.20;83.70
39769;BME280;38939;47.824;14.642;2023-03-26T00:28:58;96428.31;;;7.28;83.54
39769;BME280;38939;47.824;14.642;2023-03-26T00:30:00;96426.53;;;7.35;83.59
39769;BME280;38939;47.824;14.642;2023-03-26T00:31:15;96419.78;;;7.40;82.93
39769;BME280;38939;47.824;14.642;2023-03-26T00:32:18;96409.41;;;7.47;83.49
39769;BME280;38939;47.824;14.642;2023-03-26T00:33:21;96416.00;;;7.43;82.42
39769;BME280;38939;47.824;14.642;2023-03-26T00:34:23;96410.41;;;7.39;82.32
39769;BME280;38939;47.824;14.642;2023-03-26T00:35:27;96415.38;;;7.34;83.08
39769;BME280;38939;47.824;14.642;2023-03-26T00:36:32;96422.13;;;7.29;82.48
39769;BME280;38939;47.824;14.642;2023-03-26T00:37:36;96417.09;;;7.20;83.53
39769;BME280;38939;47.824;14.642;2023-03-26T00:38:39;96418.44;;;7.10;83.49
39769;BME280;38939;47.824;14.642;2023-03-26T00:39:41;96406.69;;;7.07;83.58
39769;BME280;38939;47.824;14.642;2023-03-26T00:40:45;96417.66;;;7.09;83.67
39769;BME280;38939;47.824;14.642;2023-03-26T00:41:48;96420.03;;;7.11;83.89
39769;BME280;38939;47.824;14.642;2023-03-26T00:42:55;96416.06;;;7.15;83.91
39769;BME280;38939;47.824;14.642;2023-03-26T00:43:58;96409.28;;;7.14;84.18
39769;BME280;38939;47.824;14.642;2023-03-26T00:45:00;96405.91;;;7.13;83.94
39769;BME280;38939;47.824;14.642;2023-03-26T00:46:02;96404.88;;;7.08;85.00
39769;BME280;38939;47.824;14.642;2023-03-26T00:47:04;96409.81;;;7.03;85.72
39769;BME280;38939;47.824;14.642;2023-03-26T00:48:07;96412.38;;;6.96;85.10
39769;BME280;38939;47.824;14.642;2023-03-26T00:49:09;96412.56;;;6.94;85.96
39769;BME280;38939;47.824;14.642;2023-03-26T00:50:12;96408.22;;;7.01;85.79
39769;BME280;38939;47.824;14.642;2023-03-26T00:51:17;96400.66;;;7.07;84.74
39769;BME280;38939;47.824;14.642;2023-03-26T00:52:20;96395.91;;;7.10;84.47
39769;BME280;38939;47.824;14.642;2023-03-26T00:53:22;96396.13;;;7.15;84.74
39769;BME280;38939;47.824;14.642;2023-03-26T00:54:24;96393.94;;;7.19;84.03
39769;BME280;38939;47.824;14.642;2023-03-26T00:55:27;96392.97;;;7.27;84.04
39769;BME280;38939;47.824;14.642;2023-03-26T00:56:29;96402.41;;;7.34;83.85
39769;BME280;38939;47.824;14.642;2023-03-26T00:57:32;96391.66;;;7.37;82.80
39769;BME280;38939;47.824;14.642;2023-03-26T00:58:37;96392.03;;;7.41;83.41
39769;BME280;38939;47.824;14.642;2023-03-26T00:59:40;96391.25;;;7.47;83.10
39769;BME280;38939;47.824;14.642;2023-03-26T01:00:57;96392.25;;;7.46;83.06
39769;BME280;38939;47.824;14.642;2023-03-26T01:02:00;96398.06;;;7.48;83.08
39769;BME280;38939;47.824;14.642;2023-03-26T01:03:03;96395.88;;;7.52;83.59
39769;BME280;38939;47.824;14.642;2023-03-26T01:06:38;96391.91;;;7.56;84.32
39769;BME280;38939;47.824;14.642;2023-03-26T01:07:42;96387.13;;;7.59;83.62
39769;BME280;38939;47.824;14.642;2023-03-26T01:08:47;96382.31;;;7.63;83.01
39769;BME280;38939;47.824;14.642;2023-03-26T01:09:50;96390.53;;;7.67;83.71
39769;BME280;38939;47.824;14.642;2023-03-26T01:10:54;96397.50;;;7.59;83.85
39769;BME280;38939;47.824;14.642;2023-03-26T01:12:06;96394.44;;;7.49;83.83
39769;BME280;38939;47.824;14.642;2023-03-26T01:13:09;96394.66;;;7.48;84.35
39769;BME280;38939;47.824;14.642;2023-03-26T01:14:16;96400.03;;;7.39;83.60
39769;BME280;38939;47.824;14.642;2023-03-26T01:15:19;96395.81;;;7.32;84.01
39769;BME280;38939;47.824;14.642;2023-03-26T01:16:43;96394.00;;;7.32;84.11
39769;BME280;38939;47.824;14.642;2023-03-26T01:17:45;96382.66;;;7.33;83.71
39769;BME280;38939;47.824;14.642;2023-03-26T01:18:48;96370.28;;;7.35;83.85
39769;BME280;38939;47.824;14.642;2023-03-26T01:19:56;96379.28;;;7.39;83.05
39769;BME280;38939;47.824;14.642;2023-03-26T01:21:02;96369.69;;;7.47;82.93
39769;BME280;38939;47.824;14.642;2023-03-26T01:22:16;96365.34;;;7.54;82.55
39769;BME280;38939;47.824;14.642;2023-03-26T01:23:22;96365.53;;;7.59;82.95
39769;BME280;38939;47.824;14.642;2023-03-26T01:24:25;96366.75;;;7.63;83.50
39769;BME280;38939;47.824;14.642;2023-03-26T01:25:28;96371.38;;;7.68;82.84
39769;BME280;38939;47.824;14.642;2023-03-26T01:27:06;96366.56;;;7.71;82.13
39769;BME280;38939;47.824;14.642;2023-03-26T01:28:10;96362.56;;;7.75;81.90
39769;BME280;38939;47.824;14.642;2023-03-26T01:29:41;96354.41;;;7.78;82.56
39769;BME280;38939;47.824;14.642;2023-03-26T01:32:09;96350.00;;;7.66;82.50
39769;BME280;38939;47.824;14.642;2023-03-26T01:33:31;96355.56;;;7.56;83.67
39769;BME280;38939;47.824;14.642;2023-03-26T01:34:43;96358.28;;;7.41;84.69
39769;BME280;38939;47.824;14.642;2023-03-26T01:39:37;96364.84;;;7.24;85.07
39769;BME280;38939;47.824;14.642;2023-03-26T01:40:51;96368.84;;;7.26;84.72
39769;BME280;38939;47.824;14.642;2023-03-26T01:42:00;96360.06;;;7.27;85.17
39769;BME280;38939;47.824;14.642;2023-03-26T01:45:31;96344.72;;;7.39;84.25
39769;BME280;38939;47.824;14.642;2023-03-26T01:46:35;96350.91;;;7.45;83.79
39769;BME280;38939;47.824;14.642;2023-03-26T01:47:39;96351.31;;;7.41;84.01
39769;BME280;38939;47.824;14.642;2023-03-26T01:48:45;96355.31;;;7.37;84.91
39769;BME280;38939;47.824;14.642;2023-03-26T01:49:47;96356.03;;;7.25;85.22
39769;BME280;38939;47.824;14.642;2023-03-26T01:50:49;96347.03;;;7.14;85.57
39769;BME280;38939;47.824;14.642;2023-03-26T01:51:56;96352.41;;;7.19;85.71
39769;BME280;38939;47.824;14.642;2023-03-26T01:52:59;96353.03;;;7.21;85.39
39769;BME280;38939;47.824;14.642;2023-03-26T01:54:03;96348.66;;;7.21;85.71
39769;BME280;38939;47.824;14.642;2023-03-26T01:55:07;96347.22;;;7.12;86.05
39769;BME280;38939;47.824;14.642;2023-03-26T02:01:26;96349.88;;;7.26;85.33
39769;BME280;38939;47.824;14.642;2023-03-26T02:04:18;96345.31;;;7.41;85.13
39769;BME280;38939;47.824;14.642;2023-03-26T02:05:28;96340.94;;;7.48;85.53
39769;BME280;38939;47.824;14.642;2023-03-26T02:06:43;96343.75;;;7.53;84.15
39769;BME280;38939;47.824;14.642;2023-03-26T02:08:16;96336.38;;;7.50;84.59
39769;BME280;38939;47.824;14.642;2023-03-26T02:09:28;96327.38;;;7.39;85.52
39769;BME280;38939;47.824;14.642;2023-03-26T02:10:35;96330.94;;;7.32;84.99
39769;BME280;38939;47.824;14.642;2023-03-26T02:11:39;96327.31;;;7.19;85.98
39769;BME280;38939;47.824;14.642;2023-03-26T02:12:43;96337.03;;;7.11;85.43
39769;BME280;38939;47.824;14.642;2023-03-26T02:13:45;96338.63;;;7.05;86.24
39769;BME280;38939;47.824;14.642;2023-03-26T02:14:47;96340.59;;;7.03;86.23
39769;BME280;38939;47.824;14.642;2023-03-26T02:15:53;96339.22;;;7.07;86.67
39769;BME280;38939;47.824;14.642;2023-03-26T02:16:55;96334.41;;;7.04;86.41
39769;BME280;38939;47.824;14.642;2023-03-26T02:17:59;96328.63;;;7.09;86.31
39769;BME280;38939;47.824;14.642;2023-03-26T02:19:02;96321.28;;;7.12;86.34
39769;BME280;38939;47.824;14.642;2023-03-26T02:20:08;96329.81;;;6.99;86.69
39769;BME280;38939;47.824;14.642;2023-03-26T02:21:17;96329.56;;;6.94;87.19
39769;BME280;38939;47.824;14.642;2023-03-26T02:22:21;96343.56;;;6.93;87.31
39769;BME280;38939;47.824;14.642;2023-03-26T02:23:23;96340.72;;;6.88;86.98
39769;BME280;38939;47.824;14.642;2023-03-26T02:24:25;96330.50;;;6.80;86.97
39769;BME280;38939;47.824;14.642;2023-03-26T02:25:27;96330.31;;;6.75;87.28
39769;BME280;38939;47.824;14.642;2023-03-26T02:26:31;96328.50;;;6.75;87.29
39769;BME280;38939;47.824;14.642;2023-03-26T02:27:35;96329.53;;;6.81;87.02
39769;BME280;38939;47.824;14.642;2023-03-26T02:28:37;96334.75;;;6.88;86.68
39769;BME280;38939;47.824;14.642;2023-03-26T02:29:40;96336.38;;;6.95;87.55
39769;BME280;38939;47.824;14.642;2023-03-26T02:30:43;96339.59;;;7.04;87.35
39769;BME280;38939;47.824;14.642;2023-03-26T02:31:46;96339.63;;;7.11;86.17
39769;BME280;38939;47.824;14.642;2023-03-26T02:32:52;96338.84;;;7.17;86.54
39769;BME280;38939;47.824;14.642;2023-03-26T02:33:55;96340.47;;;7.18;86.28
39769;BME280;38939;47.824;14.642;2023-03-26T02:34:58;96343.84;;;7.18;85.05
39769;BME280;38939;47.824;14.642;2023-03-26T02:36:00;96334.69;;;7.22;85.75
39769;BME280;38939;47.824;14.642;2023-03-26T02:37:03;96344.03;;;7.17;84.89
39769;BME280;38939;47.824;14.642;2023-03-26T02:38:05;96343.22;;;7.03;84.77
39769;BME280;38939;47.824;14.642;2023-03-26T02:39:11;96339.22;;;7.07;85.27
39769;BME280;38939;47.824;14.642;2023-03-26T02:40:17;96341.22;;;7.12;84.77
39769;BME280;38939;47.824;14.642;2023-03-26T02:41:22;96342.25;;;7.17;84.42
39769;BME280;38939;47.824;14.642;2023-03-26T02:42:24;96340.03;;;7.14;85.77
39769;BME280;38939;47.824;14.642;2023-03-26T02:43:26;96336.03;;;7.12;84.67
39769;BME280;38939;47.824;14.642;2023-03-26T02:44:29;96331.84;;;7.11;85.32
39769;BME280;38939;47.824;14.642;2023-03-26T02:45:31;96334.25;;;7.12;84.77
39769;BME280;38939;47.824;14.642;2023-03-26T02:46:33;96336.03;;;7.12;84.70
39769;BME280;38939;47.824;14.642;2023-03-26T02:47:35;96340.03;;;7.14;84.77
39769;BME280;38939;47.824;14.642;2023-03-26T02:48:37;96349.03;;;7.18;84.78
39769;BME280;38939;47.824;14.642;2023-03-26T02:49:39;96345.25;;;7.21;84.63
39769;BME280;38939;47.824;14.642;2023-03-26T02:50:42;96344.06;;;7.24;83.69
39769;BME280;38939;47.824;14.642;2023-03-26T02:51:44;96352.06;;;7.29;83.93
39769;BME280;38939;47.824;14.642;2023-03-26T02:52:46;96346.50;;;7.32;83.95
39769;BME280;38939;47.824;14.642;2023-03-26T02:53:50;96342.72;;;7.34;84.32
39769;BME280;38939;47.824;14.642;2023-03-26T02:54:54;96346.09;;;7.35;84.57
39769;BME280;38939;47.824;14.642;2023-03-26T02:55:58;96345.50;;;7.33;84.41
39769;BME280;38939;47.824;14.642;2023-03-26T02:57:01;96341.13;;;7.33;84.77
39769;BME280;38939;47.824;14.642;2023-03-26T02:58:03;96348.91;;;7.33;83.60
39769;BME280;38939;47.824;14.642;2023-03-26T02:59:05;96344.88;;;7.31;83.77
39769;BME280;38939;47.824;14.642;2023-03-26T03:00:07;96343.88;;;7.25;83.67
39769;BME280;38939;47.824;14.642;2023-03-26T03:01:10;96337.06;;;7.17;84.13
39769;BME280;38939;47.824;14.642;2023-03-26T03:02:12;96335.84;;;7.13;84.78
39769;BME280;38939;47.824;14.642;2023-03-26T03:03:14;96339.41;;;7.06;85.33
39769;BME280;38939;47.824;14.642;2023-03-26T03:04:18;96333.22;;;7.07;84.84
39769;BME280;38939;47.824;14.642;2023-03-26T03:05:20;96340.63;;;7.10;85.28
39769;BME280;38939;47.824;14.642;2023-03-26T03:06:27;96342.44;;;7.16;85.00
39769;BME280;38939;47.824;14.642;2023-03-26T03:07:31;96343.28;;;7.23;84.94
39769;BME280;38939;47.824;14.642;2023-03-26T03:08:33;96348.06;;;7.26;84.28
39769;BME280;38939;47.824;14.642;2023-03-26T03:09:35;96343.31;;;7.30;84.08
39769;BME280;38939;47.824;14.642;2023-03-26T03:10:37;96347.72;;;7.36;83.67
39769;BME280;38939;47.824;14.642;2023-03-26T03:11:41;96342.53;;;7.36;83.51
39769;BME280;38939;47.824;14.642;2023-03-26T03:12:43;96335.75;;;7.41;83.37
39769;BME280;38939;47.824;14.642;2023-03-26T03:13:45;96338.94;;;7.44;83.71
39769;BME280;38939;47.824;14.642;2023-03-26T03:14:47;96337.34;;;7.43;83.16
39769;BME280;38939;47.824;14.642;2023-03-26T03:15:49;96339.34;;;7.40;82.62
39769;BME280;38939;47.824;14.642;2023-03-26T03:16:52;96334.53;;;7.37;83.77
39769;BME280;38939;47.824;14.642;2023-03-26T03:17:54;96345.72;;;7.31;83.82
39769;BME280;38939;47.824;14.642;2023-03-26T03:18:56;96341.09;;;7.27;83.35
39769;BME280;38939;47.824;14.642;2023-03-26T03:19:58;96342.09;;;7.26;83.46
39769;BME280;38939;47.824;14.642;2023-03-26T03:21:01;96345.66;;;7.25;83.98
39769;BME280;38939;47.824;14.642;2023-03-26T03:22:03;96342.50;;;7.29;83.65
39769;BME280;38939;47.824;14.642;2023-03-26T03:23:05;96339.94;;;7.36;83.37
39769;BME280;38939;47.824;14.642;2023-03-26T03:24:08;96343.50;;;7.35;83.57
39769;BME280;38939;47.824;14.642;2023-03-26T03:25:12;96340.72;;;7.36;83.87
39769;BME280;38939;47.824;14.642;2023-03-26T03:26:18;96330.94;;;7.32;83.92
39769;BME280;38939;47.824;14.642;2023-03-26T03:27:22;96333.53;;;7.32;84.16
39769;BME280;38939;47.824;14.642;2023-03-26T03:28:27;96329.91;;;7.33;83.90
39769;BME280;38939;47.824;14.642;2023-03-26T03:29:29;96333.53;;;7.38;84.05
39769;BME280;38939;47.824;14.642;2023-03-26T03:30:31;96325.16;;;7.43;83.62
39769;BME280;38939;47.824;14.642;2023-03-26T03:31:33;96323.16;;;7.45;83.15
39769;BME280;38939;47.824;14.642;2023-03-26T03:32:35;96329.19;;;7.46;83.14
39769;BME280;38939;47.824;14.642;2023-03-26T03:33:38;96331.97;;;7.44;83.42
39769;BME280;38939;47.824;14.642;2023-03-26T03:34:42;96331.56;;;7.47;82.79
39769;BME280;38939;47.824;14.642;2023-03-26T03:35:44;96324.38;;;7.49;82.54
39769;BME280;38939;47.824;14.642;2023-03-26T03:36:46;96319.41;;;7.48;82.29
39769;BME280;38939;47.824;14.642;2023-03-26T03:37:49;96317.00;;;7.46;82.66
39769;BME280;38939;47.824;14.642;2023-03-26T03:38:51;96317.78;;;7.40;82.39
39769;BME280;38939;47.824;14.642;2023-03-26T03:39:53;96326.34;;;7.27;82.83
39769;BME280;38939;47.824;14.642;2023-03-26T03:40:55;96329.06;;;7.19;83.33
39769;BME280;38939;47.824;14.642;2023-03-26T03:41:57;96328.25;;;7.05;84.38
39769;BME280;38939;47.824;14.642;2023-03-26T03:42:59;96324.22;;;7.03;84.15
39769;BME280;38939;47.824;14.642;2023-03-26T03:44:02;96322.81;;;7.00;84.04
39769;BME280;38939;47.824;14.642;2023-03-26T03:45:04;96321.81;;;6.94;84.82
39769;BME280;38939;47.824;14.642;2023-03-26T03:46:07;96321.81;;;6.94;84.43
39769;BME280;38939;47.824;14.642;2023-03-26T03:47:09;96329.63;;;7.01;84.03
39769;BME280;38939;47.824;14.642;2023-03-26T03:48:14;96331.63;;;6.99;84.84
39769;BME280;38939;47.824;14.642;2023-03-26T03:49:16;96327.59;;;6.96;84.67
39769;BME280;38939;47.824;14.642;2023-03-26T03:50:18;96322.63;;;6.95;84.10
39769;BME280;38939;47.824;14.642;2023-03-26T03:51:20;96333.19;;;6.93;84.57
39769;BME280;38939;47.824;14.642;2023-03-26T03:52:22;96327.19;;;6.93;85.54
39769;BME280;38939;47.824;14.642;2023-03-26T03:53:24;96330.59;;;6.93;85.10
39769;BME280;38939;47.824;14.642;2023-03-26T03:54:29;96321.41;;;6.91;86.01
39769;BME280;38939;47.824;14.642;2023-03-26T03:55:32;96322.56;;;6.88;86.26
39769;BME280;38939;47.824;14.642;2023-03-26T03:56:34;96325.13;;;6.81;86.80
39769;BME280;38939;47.824;14.642;2023-03-26T03:57:36;96321.50;;;6.69;86.31
39769;BME280;38939;47.824;14.642;2023-03-26T03:58:39;96323.22;;;6.62;86.66
39769;BME280;38939;47.824;14.642;2023-03-26T03:59:42;96322.44;;;6.61;86.52
39769;BME280;38939;47.824;14.642;2023-03-26T04:00:50;96321.41;;;6.56;87.14
39769;BME280;38939;47.824;14.642;2023-03-26T04:01:52;96316.19;;;6.49;87.50
39769;BME280;38939;47.824;14.642;2023-03-26T04:02:54;96315.78;;;6.52;87.57
39769;BME280;38939;47.824;14.642;2023-03-26T04:03:57;96326.41;;;6.57;86.95
39769;BME280;38939;47.824;14.642;2023-03-26T04:05:00;96322.44;;;6.61;86.82
39769;BME280;38939;47.824;14.642;2023-03-26T04:06:04;96329.09;;;6.71;86.60
39769;BME280;38939;47.824;14.642;2023-03-26T04:07:07;96323.75;;;6.79;86.34
39769;BME280;38939;47.824;14.642;2023-03-26T04:08:09;96316.97;;;6.85;86.83
39769;BME280;38939;47.824;14.642;2023-03-26T04:09:11;96313.56;;;6.84;86.65
39769;BME280;38939;47.824;14.642;2023-03-26T04:10:14;96315.56;;;6.82;86.52
39769;BME280;38939;47.824;14.642;2023-03-26T04:11:16;96318.94;;;6.76;86.76
39769;BME280;38939;47.824;14.642;2023-03-26T04:12:19;96318.72;;;6.71;87.79
39769;BME280;38939;47.824;14.642;2023-03-26T04:13:21;96313.91;;;6.68;86.91
39769;BME280;38939;47.824;14.642;2023-03-26T04:14:23;96310.72;;;6.72;87.40
39769;BME280;38939;47.824;14.642;2023-03-26T04:15:25;96307.94;;;6.74;87.39
39769;BME280;38939;47.824;14.642;2023-03-26T04:16:27;96312.38;;;6.80;86.44
39769;BME280;38939;47.824;14.642;2023-03-26T04:17:29;96310.38;;;6.82;86.32
39769;BME280;38939;47.824;14.642;2023-03-26T04:18:31;96318.56;;;6.79;86.20
39769;BME280;38939;47.824;14.642;2023-03-26T04:19:33;96316.56;;;6.81;86.02
39769;BME280;38939;47.824;14.642;2023-03-26T04:20:36;96313.16;;;6.80;85.20
39769;BME280;38939;47.824;14.642;2023-03-26T04:21:39;96309.41;;;6.83;85.11
39769;BME280;38939;47.824;14.642;2023-03-26T04:22:43;96300.19;;;6.80;85.37
39769;BME280;38939;47.824;14.642;2023-03-26T04:23:45;96296.44;;;6.83;84.53
39769;BME280;38939;47.824;14.642;2023-03-26T04:24:47;96299.63;;;6.85;85.26
39769;BME280;38939;47.824;14.642;2023-03-26T04:25:52;96299.19;;;6.75;86.27
39769;BME280;38939;47.824;14.642;2023-03-26T04:26:56;96295.72;;;6.61;85.82
39769;BME280;38939;47.824;14.642;2023-03-26T04:28:00;96296.16;;;6.65;85.79
39769;BME280;38939;47.824;14.642;2023-03-26T04:29:07;96297.13;;;6.64;86.88
39769;BME280;38939;47.824;14.642;2023-03-26T04:30:15;96304.09;;;6.56;87.63
39769;BME280;38939;47.824;14.642;2023-03-26T04:31:24;96298.69;;;6.58;87.25
39769;BME280;38939;47.824;14.642;2023-03-26T04:32:30;96288.31;;;6.58;86.79
39769;BME280;38939;47.824;14.642;2023-03-26T04:33:36;96294.69;;;6.55;86.86
39769;BME280;38939;47.824;14.642;2023-03-26T04:34:42;96295.91;;;6.59;86.93
39769;BME280;38939;47.824;14.642;2023-03-26T04:35:47;96291.53;;;6.60;86.98
39769;BME280;38939;47.824;14.642;2023-03-26T04:36:50;96295.50;;;6.56;87.69
39769;BME280;38939;47.824;14.642;2023-03-26T04:37:55;96293.84;;;6.48;87.29
39769;BME280;38939;47.824;14.642;2023-03-26T04:38:59;96294.44;;;6.44;87.53
39769;BME280;38939;47.824;14.642;2023-03-26T04:40:03;96291.41;;;6.40;87.93
39769;BME280;38939;47.824;14.642;2023-03-26T04:41:11;96287.66;;;6.43;87.45
39769;BME280;38939;47.824;14.642;2023-03-26T04:42:13;96278.69;;;6.45;87.37
39769;BME280;38939;47.824;14.642;2023-03-26T04:43:16;96278.09;;;6.43;87.04
39769;BME280;38939;47.824;14.642;2023-03-26T04:44:18;96276.31;;;6.50;87.81
39769;BME280;38939;47.824;14.642;2023-03-26T04:45:23;96271.56;;;6.54;87.19
39769;BME280;38939;47.824;14.642;2023-03-26T04:46:25;96281.72;;;6.49;87.22
39769;BME280;38939;47.824;14.642;2023-03-26T04:47:27;96277.47;;;6.41;87.44
39769;BME280;38939;47.824;14.642;2023-03-26T04:48:29;96276.00;;;6.32;86.72
39769;BME280;38939;47.824;14.642;2023-03-26T04:49:31;96271.84;;;6.31;86.88
39769;BME280;38939;47.824;14.642;2023-03-26T04:50:33;96268.81;;;6.27;86.65
39769;BME280;38939;47.824;14.642;2023-03-26T04:51:37;96265.03;;;6.30;86.17
39769;BME280;38939;47.824;14.642;2023-03-26T04:52:40;96258.84;;;6.24;86.55
39769;BME280;38939;47.824;14.642;2023-03-26T04:53:53;96269.44;;;6.29;87.05
39769;BME280;38939;47.824;14.642;2023-03-26T04:54:58;96276.94;;;6.17;87.30
39769;BME280;38939;47.824;14.642;2023-03-26T04:57:41;96276.28;;;6.09;87.92
39769;BME280;38939;47.824;14.642;2023-03-26T04:58:46;96282.72;;;6.19;87.66
39769;BME280;38939;47.824;14.642;2023-03-26T04:59:50;96275.00;;;6.26;87.10
39769;BME280;38939;47.824;14.642;2023-03-26T05:00:53;96274.44;;;6.31;87.00
39769;BME280;38939;47.824;14.642;2023-03-26T05:01:56;96275.84;;;6.33;86.91
39769;BME280;38939;47.824;14.642;2023-03-26T05:03:00;96283.84;;;6.38;86.94
39769;BME280;38939;47.824;14.642;2023-03-26T05:04:02;96281.91;;;6.47;86.25
39769;BME280;38939;47.824;14.642;2023-03-26T05:05:05;96277.94;;;6.51;86.34
39769;BME280;38939;47.824;14.642;2023-03-26T05:06:09;96276.75;;;6.54;85.78
39769;BME280;38939;47.824;14.642;2023-03-26T05:07:16;96273.59;;;6.58;85.33
39769;BME280;38939;47.824;14.642;2023-03-26T05:08:19;96267.41;;;6.59;85.68
39769;BME280;38939;47.824;14.642;2023-03-26T05:09:21;96267.38;;;6.53;85.20
39769;BME280;38939;47.824;14.642;2023-03-26T05:10:23;96270.16;;;6.51;85.93
39769;BME280;38939;47.824;14.642;2023-03-26T05:11:26;96265.41;;;6.55;86.23
39769;BME280;38939;47.824;14.642;2023-03-26T05:12:29;96272.31;;;6.48;85.47
39769;BME280;38939;47.824;14.642;2023-03-26T05:13:31;96263.94;;;6.46;85.62
39769;BME280;38939;47.824;14.642;2023-03-26T05:14:33;96270.13;;;6.45;85.45
39769;BME280;38939;47.824;14.642;2023-03-26T05:15:36;96266.72;;;6.44;85.60
39769;BME280;38939;47.824;14.642;2023-03-26T05:16:38;96262.69;;;6.35;85.38
39769;BME280;38939;47.824;14.642;2023-03-26T05:17:42;96265.81;;;6.24;86.01
39769;BME280;38939;47.824;14.642;2023-03-26T05:18:44;96274.94;;;6.19;86.35
39769;BME280;38939;47.824;14.642;2023-03-26T05:19:47;96268.19;;;6.18;86.19
39769;BME280;38939;47.824;14.642;2023-03-26T05:20:49;96266.81;;;6.23;86.63
39769;BME280;38939;47.824;14.642;2023-03-26T05:21:52;96272.22;;;6.28;86.29
39769;BME280;38939;47.824;14.642;2023-03-26T05:22:54;96264.84;;;6.31;85.80
39769;BME280;38939;47.824;14.642;2023-03-26T05:23:57;96264.28;;;6.36;86.53
39769;BME280;38939;47.824;14.642;2023-03-26T05:24:59;96266.31;;;6.40;86.31
39769;BME280;38939;47.824;14.642;2023-03-26T05:26:01;96265.34;;;6.48;86.04
39769;BME280;38939;47.824;14.642;2023-03-26T05:27:03;96263.78;;;6.54;85.67
39769;BME280;38939;47.824;14.642;2023-03-26T05:28:05;96266.97;;;6.56;85.16
39769;BME280;38939;47.824;14.642;2023-03-26T05:29:07;96260.63;;;6.58;85.43
39769;BME280;38939;47.824;14.642;2023-03-26T05:30:13;96260.66;;;6.65;84.90
39769;BME280;38939;47.824;14.642;2023-03-26T05:31:19;96259.28;;;6.69;84.72
39769;BME280;38939;47.824;14.642;2023-03-26T05:32:22;96260.50;;;6.73;84.71
39769;BME280;38939;47.824;14.642;2023-03-26T05:33:24;96257.72;;;6.75;84.17
39769;BME280;38939;47.824;14.642;2023-03-26T05:34:26;96264.03;;;6.66;83.91
39769;BME280;38939;47.824;14.642;2023-03-26T05:35:29;96261.38;;;6.52;84.18
39769;BME280;38939;47.824;14.642;2023-03-26T05:36:31;96258.78;;;6.52;84.18
39769;BME280;38939;47.824;14.642;2023-03-26T05:37:33;96254.19;;;6.54;84.08
39769;BME280;38939;47.824;14.642;2023-03-26T05:38:36;96269.75;;;6.54;84.53
39769;BME280;38939;47.824;14.642;2023-03-26T05:39:38;96272.31;;;6.48;84.75
39769;BME280;38939;47.824;14.642;2023-03-26T05:40:41;96268.75;;;6.49;84.91
39769;BME280;38939;47.824;14.642;2023-03-26T05:41:43;96267.94;;;6.48;85.31
39769;BME280;38939;47.824;14.642;2023-03-26T05:42:45;96262.81;;;6.55;85.14
39769;BME280;38939;47.824;14.642;2023-03-26T05:43:47;96260.03;;;6.56;85.73
39769;BME280;38939;47.824;14.642;2023-03-26T05:44:50;96264.19;;;6.51;84.96
39769;BME280;38939;47.824;14.642;2023-03-26T05:45:52;96265.34;;;6.48;85.34
39769;BME280;38939;47.824;14.642;2023-03-26T05:46:54;96262.19;;;6.53;85.34
39769;BME280;38939;47.824;14.642;2023-03-26T05:47:56;96266.78;;;6.57;85.87
39769;BME280;38939;47.824;14.642;2023-03-26T05:48:58;96264.03;;;6.66;85.11
39769;BME280;38939;47.824;14.642;2023-03-26T05:50:00;96267.47;;;6.73;85.05
39769;BME280;38939;47.824;14.642;2023-03-26T05:51:03;96262.91;;;6.75;84.33
39769;BME280;38939;47.824;14.642;2023-03-26T05:52:06;96261.28;;;6.74;85.27
39769;BME280;38939;47.824;14.642;2023-03-26T05:53:08;96259.91;;;6.78;84.94
39769;BME280;38939;47.824;14.642;2023-03-26T05:54:10;96256.31;;;6.79;85.15
39769;BME280;38939;47.824;14.642;2023-03-26T05:55:13;96252.72;;;6.80;85.05
39769;BME280;38939;47.824;14.642;2023-03-26T05:56:15;96258.91;;;6.79;85.71
39769;BME280;38939;47.824;14.642;2023-03-26T05:57:17;96252.53;;;6.75;85.79